sensor_id;sensor_type;location;lat;lon;timestamp;pressure;altitude;pressure_sealevel;temperature;humidity
66381;BME280;53177;52.648;1.214;2023-05-12T00:01:38;101638.72;;;9.76;100.00
66381;BME280;53177;52.648;1.214;2023-05-12T00:04:03;101642.22;;;9.79;100.00
66381;BME280;53177;52.648;1.214;2023-05-12T00:06:29;101644.00;;;9.77;100.00
66381;BME280;53177;52.648;1.214;2023-05-12T00:08:55;101640.47;;;9.82;100.00
66381;BME280;53177;52.648;1.214;2023-05-12T00:11:20;101641.34;;;9.81;100.00
66381;BME280;53177;52.648;1.214;2023-05-12T00:13:46;101649.25;;;9.85;100.00
66381;BME280;53177;52.648;1.214;2023-05-12T00:16:12;101644.88;;;9.83;100.00
66381;BME280;53177;52.648;1.214;2023-05-12T00:18:39;101645.75;;;9.86;100.00
66381;BME280;53177;52.648;1.214;2023-05-12T00:21:04;101646.66;;;9.77;100.00
66381;BME280;53177;52.648;1.214;2023-05-12T00:23:32;101651.94;;;9.76;100.00
66381;BME280;53177;52.648;1.214;2023-05-12T00:25:58;101649.31;;;9.74;100.00
66381;BME280;53177;52.648;1.214;2023-05-12T00:28:23;101655.47;;;9.73;100.00
66381;BME280;53177;52.648;1.214;2023-05-12T00:30:48;101644.94;;;9.70;100.00
66381;BME280;53177;52.648;1.214;2023-05-12T00:33:14;101649.38;;;9.59;100.00
66381;BME280;53177;52.648;1.214;2023-05-12T00:35:41;101650.25;;;9.63;100.00
66381;BME280;53177;52.648;1.214;2023-05-12T00:38:06;101658.16;;;9.63;100.00
66381;BME280;53177;52.648;1.214;2023-05-12T00:40:32;101654.63;;;9.65;100.00
66381;BME280;53177;52.648;1.214;2023-05-12T00:42:57;101657.28;;;9.62;100.00
66381;BME280;53177;52.648;1.214;2023-05-12T00:45:22;101652.03;;;9.59;100.00
66381;BME280;53177;52.648;1.214;2023-05-12T00:47:50;101659.06;;;9.59;100.00
66381;BME280;53177;52.648;1.214;2023-05-12T00:50:17;101654.66;;;9.59;100.00
66381;BME280;53177;52.648;1.214;2023-05-12T00:52:43;101659.94;;;9.62;100.00
66381;BME280;53177;52.648;1.214;2023-05-12T00:55:08;101654.63;;;9.61;100.00
66381;BME280;53177;52.648;1.214;2023-05-12T00:57:34;101650.25;;;9.60;100.00
66381;BME280;53177;52.648;1.214;2023-05-12T00:59:59;101659.06;;;9.59;100.00
66381;BME280;53177;52.648;1.214;2023-05-12T01:02:25;101653.78;;;9.59;100.00
66381;BME280;53177;52.648;1.214;2023-05-12T01:04:50;101663.47;;;9.55;100.00
66381;BME280;53177;52.648;1.214;2023-05-12T01:07:20;101664.38;;;9.51;100.00
66381;BME280;53177;52.648;1.214;2023-05-12T01:09:47;101663.50;;;9.43;100.00
66381;BME280;53177;52.648;1.214;2023-05-12T01:12:12;101659.97;;;9.47;100.00
66381;BME280;53177;52.648;1.214;2023-05-12T01:14:39;101666.13;;;9.48;100.00
66381;BME280;53177;52.648;1.214;2023-05-12T01:17:10;101661.75;;;9.44;100.00
66381;BME280;53177;52.648;1.214;2023-05-12T01:19:46;101664.41;;;9.42;100.00
66381;BME280;53177;52.648;1.214;2023-05-12T01:22:13;101669.69;;;9.41;100.00
66381;BME280;53177;52.648;1.214;2023-05-12T01:24:54;101669.69;;;9.42;100.00
66381;BME280;53177;52.648;1.214;2023-05-12T01:27:22;101664.41;;;9.42;100.00
66381;BME280;53177;52.648;1.214;2023-05-12T01:29:50;101668.78;;;9.40;100.00
66381;BME280;53177;52.648;1.214;2023-05-12T01:32:17;101664.38;;;9.44;100.00
66381;BME280;53177;52.648;1.214;2023-05-12T01:34:43;101664.38;;;9.39;100.00
66381;BME280;53177;52.648;1.214;2023-05-12T01:37:09;101671.44;;;9.42;100.00
66381;BME280;53177;52.648;1.214;2023-05-12T01:39:35;101670.53;;;9.44;100.00
66381;BME280;53177;52.648;1.214;2023-05-12T01:42:04;101675.84;;;9.46;100.00
66381;BME280;53177;52.648;1.214;2023-05-12T01:44:30;101678.47;;;9.46;100.00
66381;BME280;53177;52.648;1.214;2023-05-12T01:46:56;101675.84;;;9.46;100.00
66381;BME280;53177;52.648;1.214;2023-05-12T01:49:21;101676.72;;;9.42;100.00
66381;BME280;53177;52.648;1.214;2023-05-12T01:51:47;101672.31;;;9.41;100.00
66381;BME280;53177;52.648;1.214;2023-05-12T01:54:12;101676.72;;;9.36;100.00
66381;BME280;53177;52.648;1.214;2023-05-12T01:56:38;101688.19;;;9.35;100.00
66381;BME280;53177;52.648;1.214;2023-05-12T01:59:03;101686.41;;;9.32;100.00
66381;BME280;53177;52.648;1.214;2023-05-12T02:01:29;101687.31;;;9.31;100.00
66381;BME280;53177;52.648;1.214;2023-05-12T02:03:57;101696.09;;;9.30;100.00
66381;BME280;53177;52.648;1.214;2023-05-12T02:06:23;101698.75;;;9.27;100.00
66381;BME280;53177;52.648;1.214;2023-05-12T02:08:48;101698.75;;;9.25;100.00
66381;BME280;53177;52.648;1.214;2023-05-12T02:11:14;101696.97;;;9.21;100.00
66381;BME280;53177;52.648;1.214;2023-05-12T02:13:40;101696.09;;;9.28;100.00
66381;BME280;53177;52.648;1.214;2023-05-12T02:16:06;101692.59;;;9.22;100.00
66381;BME280;53177;52.648;1.214;2023-05-12T02:18:32;101685.56;;;9.12;100.00
66381;BME280;53177;52.648;1.214;2023-05-12T02:20:57;101685.56;;;9.06;100.00
66381;BME280;53177;52.648;1.214;2023-05-12T02:23:23;101697.00;;;9.09;100.00
66381;BME280;53177;52.648;1.214;2023-05-12T02:25:48;101689.97;;;9.10;100.00
66381;BME280;53177;52.648;1.214;2023-05-12T02:28:13;101701.41;;;9.07;100.00
66381;BME280;53177;52.648;1.214;2023-05-12T02:30:46;101690.84;;;9.06;100.00
66381;BME280;53177;52.648;1.214;2023-05-12T02:33:16;101703.16;;;9.02;100.00
66381;BME280;53177;52.648;1.214;2023-05-12T02:35:43;101697.91;;;8.96;100.00
66381;BME280;53177;52.648;1.214;2023-05-12T02:38:09;101697.03;;;8.94;100.00
66381;BME280;53177;52.648;1.214;2023-05-12T02:40:34;101703.19;;;8.93;100.00
66381;BME280;53177;52.648;1.214;2023-05-12T02:43:00;101696.13;;;8.91;100.00
66381;BME280;53177;52.648;1.214;2023-05-12T02:45:25;101698.75;;;8.91;100.00
66381;BME280;53177;52.648;1.214;2023-05-12T02:47:51;101699.63;;;8.91;100.00
66381;BME280;53177;52.648;1.214;2023-05-12T02:50:17;101699.66;;;8.94;100.00
66381;BME280;53177;52.648;1.214;2023-05-12T02:52:43;101701.41;;;8.97;100.00
66381;BME280;53177;52.648;1.214;2023-05-12T02:55:08;101699.66;;;8.94;100.00
66381;BME280;53177;52.648;1.214;2023-05-12T02:57:33;101698.78;;;8.97;100.00
66381;BME280;53177;52.648;1.214;2023-05-12T03:00:00;101699.66;;;8.93;100.00
66381;BME280;53177;52.648;1.214;2023-05-12T03:02:25;101695.25;;;8.92;100.00
66381;BME280;53177;52.648;1.214;2023-05-12T03:04:51;101697.00;;;8.88;100.00
66381;BME280;53177;52.648;1.214;2023-05-12T03:07:16;101697.88;;;8.84;100.00
66381;BME280;53177;52.648;1.214;2023-05-12T03:09:42;101698.78;;;8.89;100.00
66381;BME280;53177;52.648;1.214;2023-05-12T03:12:07;101695.25;;;8.84;100.00
66381;BME280;53177;52.648;1.214;2023-05-12T03:14:33;101697.00;;;8.76;100.00
66381;BME280;53177;52.648;1.214;2023-05-12T03:16:58;101692.63;;;8.73;100.00
66381;BME280;53177;52.648;1.214;2023-05-12T03:19:24;101690.84;;;8.77;100.00
66381;BME280;53177;52.648;1.214;2023-05-12T03:21:49;101695.25;;;8.78;100.00
66381;BME280;53177;52.648;1.214;2023-05-12T03:24:15;101699.66;;;8.80;100.00
66381;BME280;53177;52.648;1.214;2023-05-12T03:26:42;101697.91;;;8.83;100.00
66381;BME280;53177;52.648;1.214;2023-05-12T03:29:09;101698.75;;;8.80;100.00
66381;BME280;53177;52.648;1.214;2023-05-12T03:31:34;101700.50;;;8.79;100.00
66381;BME280;53177;52.648;1.214;2023-05-12T03:34:00;101691.75;;;8.74;100.00
66381;BME280;53177;52.648;1.214;2023-05-12T03:36:25;101701.41;;;8.69;100.00
66381;BME280;53177;52.648;1.214;2023-05-12T03:38:51;101704.06;;;8.71;100.00
66381;BME280;53177;52.648;1.214;2023-05-12T03:41:16;101705.81;;;8.70;100.00
66381;BME280;53177;52.648;1.214;2023-05-12T03:43:41;101707.56;;;8.71;100.00
66381;BME280;53177;52.648;1.214;2023-05-12T03:46:07;101709.31;;;8.74;100.00
66381;BME280;53177;52.648;1.214;2023-05-12T03:48:32;101706.66;;;8.72;100.00
66381;BME280;53177;52.648;1.214;2023-05-12T03:50:58;101703.16;;;8.66;100.00
66381;BME280;53177;52.648;1.214;2023-05-12T03:53:23;101708.44;;;8.64;100.00
66381;BME280;53177;52.648;1.214;2023-05-12T03:55:49;101709.31;;;8.66;100.00
66381;BME280;53177;52.648;1.214;2023-05-12T03:58:14;101708.44;;;8.69;100.00
66381;BME280;53177;52.648;1.214;2023-05-12T04:00:39;101713.72;;;8.67;100.00
66381;BME280;53177;52.648;1.214;2023-05-12T04:03:05;101714.59;;;8.71;100.00
66381;BME280;53177;52.648;1.214;2023-05-12T04:05:30;101712.81;;;8.70;100.00
66381;BME280;53177;52.648;1.214;2023-05-12T04:07:55;101717.25;;;8.68;100.00
66381;BME280;53177;52.648;1.214;2023-05-12T04:10:21;101717.25;;;8.68;100.00
66381;BME280;53177;52.648;1.214;2023-05-12T04:12:47;101713.72;;;8.70;100.00
66381;BME280;53177;52.648;1.214;2023-05-12T04:15:12;101713.72;;;8.73;100.00
66381;BME280;53177;52.648;1.214;2023-05-12T04:17:39;101716.34;;;8.76;100.00
66381;BME280;53177;52.648;1.214;2023-05-12T04:20:05;101710.19;;;8.73;100.00
66381;BME280;53177;52.648;1.214;2023-05-12T04:22:31;101717.22;;;8.72;100.00
66381;BME280;53177;52.648;1.214;2023-05-12T04:24:56;101715.44;;;8.68;100.00
66381;BME280;53177;52.648;1.214;2023-05-12T04:27:22;101713.69;;;8.69;100.00
66381;BME280;53177;52.648;1.214;2023-05-12T04:29:47;101720.72;;;8.65;100.00
66381;BME280;53177;52.648;1.214;2023-05-12T04:32:12;101728.63;;;8.68;100.00
66381;BME280;53177;52.648;1.214;2023-05-12T04:34:38;101730.38;;;8.65;100.00
66381;BME280;53177;52.648;1.214;2023-05-12T04:37:03;101725.13;;;8.63;100.00
66381;BME280;53177;52.648;1.214;2023-05-12T04:39:29;101728.63;;;8.65;100.00
66381;BME280;53177;52.648;1.214;2023-05-12T04:41:54;101721.63;;;8.66;100.00
66381;BME280;53177;52.648;1.214;2023-05-12T04:44:20;101726.03;;;8.61;100.00
66381;BME280;53177;52.648;1.214;2023-05-12T04:46:46;101734.81;;;8.57;100.00
66381;BME280;53177;52.648;1.214;2023-05-12T04:49:12;101736.56;;;8.59;100.00
66381;BME280;53177;52.648;1.214;2023-05-12T04:51:37;101735.66;;;8.62;100.00
66381;BME280;53177;52.648;1.214;2023-05-12T04:54:08;101733.91;;;8.65;100.00
66381;BME280;53177;52.648;1.214;2023-05-12T04:56:34;101735.69;;;8.63;100.00
66381;BME280;53177;52.648;1.214;2023-05-12T04:58:59;101740.94;;;8.66;100.00
66381;BME280;53177;52.648;1.214;2023-05-12T05:01:25;101739.19;;;8.65;100.00
66381;BME280;53177;52.648;1.214;2023-05-12T05:03:50;101740.06;;;8.55;100.00
66381;BME280;53177;52.648;1.214;2023-05-12T05:06:16;101749.72;;;8.56;100.00
66381;BME280;53177;52.648;1.214;2023-05-12T05:08:41;101748.84;;;8.56;100.00
66381;BME280;53177;52.648;1.214;2023-05-12T05:11:07;101759.41;;;8.50;100.00
66381;BME280;53177;52.648;1.214;2023-05-12T05:13:32;101755.00;;;8.53;100.00
66381;BME280;53177;52.648;1.214;2023-05-12T05:15:58;101755.84;;;8.54;100.00
66381;BME280;53177;52.648;1.214;2023-05-12T05:18:23;101758.50;;;8.48;100.00
66381;BME280;53177;52.648;1.214;2023-05-12T05:20:48;101757.63;;;8.46;100.00
66381;BME280;53177;52.648;1.214;2023-05-12T05:23:14;101750.59;;;8.45;100.00
66381;BME280;53177;52.648;1.214;2023-05-12T05:25:39;101758.50;;;8.49;100.00
66381;BME280;53177;52.648;1.214;2023-05-12T05:28:05;101758.50;;;8.48;100.00
66381;BME280;53177;52.648;1.214;2023-05-12T05:30:30;101749.72;;;8.46;100.00
66381;BME280;53177;52.648;1.214;2023-05-12T05:32:56;101763.75;;;8.51;100.00
66381;BME280;53177;52.648;1.214;2023-05-12T05:35:21;101765.53;;;8.52;100.00
66381;BME280;53177;52.648;1.214;2023-05-12T05:37:46;101767.31;;;8.50;100.00
66381;BME280;53177;52.648;1.214;2023-05-12T05:40:12;101775.19;;;8.51;100.00
66381;BME280;53177;52.648;1.214;2023-05-12T05:42:38;101775.22;;;8.56;100.00
66381;BME280;53177;52.648;1.214;2023-05-12T05:45:04;101776.06;;;8.58;100.00
66381;BME280;53177;52.648;1.214;2023-05-12T05:47:30;101774.34;;;8.57;100.00
66381;BME280;53177;52.648;1.214;2023-05-12T05:49:56;101779.59;;;8.54;100.00
66381;BME280;53177;52.648;1.214;2023-05-12T05:52:21;101775.19;;;8.54;100.00
66381;BME280;53177;52.648;1.214;2023-05-12T05:54:48;101783.13;;;8.59;100.00
66381;BME280;53177;52.648;1.214;2023-05-12T05:57:14;101788.41;;;8.56;100.00
66381;BME280;53177;52.648;1.214;2023-05-12T05:59:39;101786.63;;;8.58;100.00
66381;BME280;53177;52.648;1.214;2023-05-12T06:02:05;101783.09;;;8.54;100.00
66381;BME280;53177;52.648;1.214;2023-05-12T06:04:31;101788.41;;;8.59;100.00
66381;BME280;53177;52.648;1.214;2023-05-12T06:06:56;101783.13;;;8.65;100.00
66381;BME280;53177;52.648;1.214;2023-05-12T06:09:21;101794.56;;;8.64;100.00
66381;BME280;53177;52.648;1.214;2023-05-12T06:11:47;101795.44;;;8.69;100.00
66381;BME280;53177;52.648;1.214;2023-05-12T06:14:12;101799.84;;;8.68;100.00
66381;BME280;53177;52.648;1.214;2023-05-12T06:16:38;101797.22;;;8.64;100.00
66381;BME280;53177;52.648;1.214;2023-05-12T06:19:03;101800.72;;;8.66;100.00
66381;BME280;53177;52.648;1.214;2023-05-12T06:21:29;101806.88;;;8.69;100.00
66381;BME280;53177;52.648;1.214;2023-05-12T06:23:54;101797.22;;;8.70;100.00
66381;BME280;53177;52.648;1.214;2023-05-12T06:26:20;101803.38;;;8.79;100.00
66381;BME280;53177;52.648;1.214;2023-05-12T06:28:46;101801.63;;;8.74;100.00
66381;BME280;53177;52.648;1.214;2023-05-12T06:31:11;101813.06;;;8.79;100.00
66381;BME280;53177;52.648;1.214;2023-05-12T06:33:37;101814.81;;;8.75;100.00
66381;BME280;53177;52.648;1.214;2023-05-12T06:36:02;101805.16;;;8.74;100.00
66381;BME280;53177;52.648;1.214;2023-05-12T06:38:28;101815.72;;;8.79;100.00
66381;BME280;53177;52.648;1.214;2023-05-12T06:40:53;101809.56;;;8.83;100.00
66381;BME280;53177;52.648;1.214;2023-05-12T06:43:19;101801.66;;;8.83;100.00
66381;BME280;53177;52.648;1.214;2023-05-12T06:45:44;101808.66;;;8.84;100.00
66381;BME280;53177;52.648;1.214;2023-05-12T06:48:09;101809.56;;;8.85;100.00
66381;BME280;53177;52.648;1.214;2023-05-12T06:50:35;101799.00;;;8.86;100.00
66381;BME280;53177;52.648;1.214;2023-05-12T06:53:00;101811.34;;;8.93;100.00
66381;BME280;53177;52.648;1.214;2023-05-12T06:55:26;101807.81;;;8.90;100.00
66381;BME280;53177;52.648;1.214;2023-05-12T06:57:51;101820.13;;;8.92;100.00
66381;BME280;53177;52.648;1.214;2023-05-12T07:00:22;101813.94;;;8.95;100.00
66381;BME280;53177;52.648;1.214;2023-05-12T07:02:48;101822.75;;;8.89;100.00
66381;BME280;53177;52.648;1.214;2023-05-12T07:05:13;101813.94;;;8.87;100.00
66381;BME280;53177;52.648;1.214;2023-05-12T07:07:39;101818.34;;;8.85;100.00
66381;BME280;53177;52.648;1.214;2023-05-12T07:10:05;101828.03;;;8.89;100.00
66381;BME280;53177;52.648;1.214;2023-05-12T07:12:30;101825.38;;;8.86;100.00
66381;BME280;53177;52.648;1.214;2023-05-12T07:14:56;101825.38;;;8.86;100.00
66381;BME280;53177;52.648;1.214;2023-05-12T07:17:22;101822.75;;;8.83;100.00
66381;BME280;53177;52.648;1.214;2023-05-12T07:19:47;101833.28;;;8.85;100.00
66381;BME280;53177;52.648;1.214;2023-05-12T07:22:12;101830.66;;;8.86;100.00
66381;BME280;53177;52.648;1.214;2023-05-12T07:24:38;101826.28;;;8.90;100.00
66381;BME280;53177;52.648;1.214;2023-05-12T07:27:04;101821.88;;;8.92;100.00
66381;BME280;53177;52.648;1.214;2023-05-12T07:29:29;101829.75;;;8.87;100.00
66381;BME280;53177;52.648;1.214;2023-05-12T07:31:55;101833.31;;;8.95;100.00
66381;BME280;53177;52.648;1.214;2023-05-12T07:34:20;101843.00;;;8.90;100.00
66381;BME280;53177;52.648;1.214;2023-05-12T07:36:45;101832.44;;;8.90;100.00
66381;BME280;53177;52.648;1.214;2023-05-12T07:39:11;101829.78;;;8.95;100.00
66381;BME280;53177;52.648;1.214;2023-05-12T07:41:39;101831.56;;;8.96;100.00
66381;BME280;53177;52.648;1.214;2023-05-12T07:44:05;101832.44;;;8.96;100.00
66381;BME280;53177;52.648;1.214;2023-05-12T07:46:30;101832.44;;;9.01;100.00
66381;BME280;53177;52.648;1.214;2023-05-12T07:48:56;101837.72;;;9.02;100.00
66381;BME280;53177;52.648;1.214;2023-05-12T07:51:21;101835.06;;;8.99;100.00
66381;BME280;53177;52.648;1.214;2023-05-12T07:53:46;101837.72;;;8.98;100.00
66381;BME280;53177;52.648;1.214;2023-05-12T07:56:12;101839.47;;;9.02;100.00
66381;BME280;53177;52.648;1.214;2023-05-12T07:58:37;101847.41;;;9.00;100.00
66381;BME280;53177;52.648;1.214;2023-05-12T08:01:03;101843.88;;;8.97;100.00
66381;BME280;53177;52.648;1.214;2023-05-12T08:03:31;101851.78;;;8.97;100.00
66381;BME280;53177;52.648;1.214;2023-05-12T08:05:57;101850.88;;;8.92;100.00
66381;BME280;53177;52.648;1.214;2023-05-12T08:08:22;101847.34;;;8.88;100.00
66381;BME280;53177;52.648;1.214;2023-05-12T08:10:48;101849.97;;;8.84;100.00
66381;BME280;53177;52.648;1.214;2023-05-12T08:13:13;101859.69;;;8.83;100.00
66381;BME280;53177;52.648;1.214;2023-05-12T08:15:38;101853.50;;;8.81;100.00
66381;BME280;53177;52.648;1.214;2023-05-12T08:18:04;101861.38;;;8.76;100.00
66381;BME280;53177;52.648;1.214;2023-05-12T08:20:29;101858.78;;;8.81;100.00
66381;BME280;53177;52.648;1.214;2023-05-12T08:22:55;101850.00;;;8.79;100.00
66381;BME280;53177;52.648;1.214;2023-05-12T08:25:21;101858.78;;;8.81;100.00
66381;BME280;53177;52.648;1.214;2023-05-12T08:27:46;101861.41;;;8.79;100.00
66381;BME280;53177;52.648;1.214;2023-05-12T08:30:12;101860.53;;;8.82;100.00
66381;BME280;53177;52.648;1.214;2023-05-12T08:32:38;101851.75;;;8.78;100.00
66381;BME280;53177;52.648;1.214;2023-05-12T08:35:04;101859.66;;;8.82;100.00
66381;BME280;53177;52.648;1.214;2023-05-12T08:37:30;101854.38;;;8.77;100.00
66381;BME280;53177;52.648;1.214;2023-05-12T08:39:56;101856.13;;;8.76;100.00
66381;BME280;53177;52.648;1.214;2023-05-12T08:42:41;101850.84;;;8.73;100.00
66381;BME280;53177;52.648;1.214;2023-05-12T08:45:10;101853.47;;;8.73;100.00
66381;BME280;53177;52.648;1.214;2023-05-12T08:47:37;101862.28;;;8.71;100.00
66381;BME280;53177;52.648;1.214;2023-05-12T08:50:03;101864.03;;;8.75;100.00
66381;BME280;53177;52.648;1.214;2023-05-12T08:52:32;101857.84;;;8.68;100.00
66381;BME280;53177;52.648;1.214;2023-05-12T08:54:59;101857.84;;;8.68;100.00
66381;BME280;53177;52.648;1.214;2023-05-12T08:57:25;101854.38;;;8.75;100.00
66381;BME280;53177;52.648;1.214;2023-05-12T08:59:53;101850.84;;;8.73;100.00
66381;BME280;53177;52.648;1.214;2023-05-12T09:02:21;101847.31;;;8.73;100.00
66381;BME280;53177;52.648;1.214;2023-05-12T09:04:47;101835.00;;;8.70;100.00
66381;BME280;53177;52.648;1.214;2023-05-12T09:07:13;101829.75;;;8.72;100.00
66381;BME280;53177;52.648;1.214;2023-05-12T09:09:42;101845.56;;;8.76;100.00
66381;BME280;53177;52.648;1.214;2023-05-12T09:12:11;101849.09;;;8.77;100.00
66381;BME280;53177;52.648;1.214;2023-05-12T09:14:37;101834.16;;;8.74;100.00
66381;BME280;53177;52.648;1.214;2023-05-12T09:17:05;101849.09;;;8.74;100.00
66381;BME280;53177;52.648;1.214;2023-05-12T09:19:30;101843.84;;;8.75;100.00
66381;BME280;53177;52.648;1.214;2023-05-12T09:21:57;101842.94;;;8.72;100.00
66381;BME280;53177;52.648;1.214;2023-05-12T09:24:36;101838.53;;;8.72;100.00
66381;BME280;53177;52.648;1.214;2023-05-12T09:27:02;101849.94;;;8.73;100.00
66381;BME280;53177;52.648;1.214;2023-05-12T09:29:28;101840.28;;;8.67;100.00
66381;BME280;53177;52.648;1.214;2023-05-12T09:31:55;101829.72;;;8.69;100.00
66381;BME280;53177;52.648;1.214;2023-05-12T09:34:30;101821.81;;;8.70;100.00
66381;BME280;53177;52.648;1.214;2023-05-12T09:37:00;101837.66;;;8.72;100.00
66381;BME280;53177;52.648;1.214;2023-05-12T09:39:26;101838.53;;;8.68;100.00
66381;BME280;53177;52.648;1.214;2023-05-12T09:41:52;101846.44;;;8.68;100.00
66381;BME280;53177;52.648;1.214;2023-05-12T09:44:18;101853.47;;;8.67;100.00
66381;BME280;53177;52.648;1.214;2023-05-12T09:46:44;101852.59;;;8.70;100.00
66381;BME280;53177;52.648;1.214;2023-05-12T09:49:10;101854.34;;;8.72;100.00
66381;BME280;53177;52.648;1.214;2023-05-12T09:51:36;101849.09;;;8.68;100.00
66381;BME280;53177;52.648;1.214;2023-05-12T09:54:01;101858.75;;;8.67;100.00
66381;BME280;53177;52.648;1.214;2023-05-12T09:56:28;101856.97;;;8.66;100.00
66381;BME280;53177;52.648;1.214;2023-05-12T09:58:56;101858.75;;;8.67;100.00
66381;BME280;53177;52.648;1.214;2023-05-12T10:01:22;101845.53;;;8.66;100.00
66381;BME280;53177;52.648;1.214;2023-05-12T10:03:50;101848.16;;;8.63;100.00
66381;BME280;53177;52.648;1.214;2023-05-12T10:06:30;101849.06;;;8.63;100.00
66381;BME280;53177;52.648;1.214;2023-05-12T10:09:10;101855.22;;;8.70;100.00
66381;BME280;53177;52.648;1.214;2023-05-12T10:11:40;101856.09;;;8.66;100.00
66381;BME280;53177;52.648;1.214;2023-05-12T10:14:05;101864.88;;;8.65;100.00
66381;BME280;53177;52.648;1.214;2023-05-12T10:16:34;101865.78;;;8.70;100.00
66381;BME280;53177;52.648;1.214;2023-05-12T10:19:01;101868.38;;;8.68;100.00
66381;BME280;53177;52.648;1.214;2023-05-12T10:21:27;101866.66;;;8.70;100.00
66381;BME280;53177;52.648;1.214;2023-05-12T10:23:53;101861.38;;;8.73;100.00
66381;BME280;53177;52.648;1.214;2023-05-12T10:26:18;101863.16;;;8.77;100.00
66381;BME280;53177;52.648;1.214;2023-05-12T10:28:45;101870.22;;;8.82;100.00
66381;BME280;53177;52.648;1.214;2023-05-12T10:31:12;101874.59;;;8.81;100.00
66381;BME280;53177;52.648;1.214;2023-05-12T10:33:37;101882.50;;;8.81;100.00
66381;BME280;53177;52.648;1.214;2023-05-12T10:36:03;101881.63;;;8.84;100.00
66381;BME280;53177;52.648;1.214;2023-05-12T10:38:35;101883.41;;;8.83;100.00
66381;BME280;53177;52.648;1.214;2023-05-12T10:41:04;101879.88;;;8.84;100.00
66381;BME280;53177;52.648;1.214;2023-05-12T10:43:38;101878.13;;;8.88;100.00
66381;BME280;53177;52.648;1.214;2023-05-12T10:48:56;101884.28;;;8.91;100.00
66381;BME280;53177;52.648;1.214;2023-05-12T10:51:27;101887.84;;;8.93;100.00
66381;BME280;53177;52.648;1.214;2023-05-12T10:54:04;101876.41;;;8.93;100.00
66381;BME280;53177;52.648;1.214;2023-05-12T10:56:41;101878.16;;;8.95;100.00
66381;BME280;53177;52.648;1.214;2023-05-12T10:59:11;101875.53;;;9.01;100.00
66381;BME280;53177;52.648;1.214;2023-05-12T11:01:38;101872.88;;;9.00;100.00
66381;BME280;53177;52.648;1.214;2023-05-12T11:04:15;101881.72;;;9.05;100.00
66381;BME280;53177;52.648;1.214;2023-05-12T11:06:42;101879.06;;;9.03;100.00
66381;BME280;53177;52.648;1.214;2023-05-12T11:09:09;101888.72;;;9.06;100.00
66381;BME280;53177;52.648;1.214;2023-05-12T11:11:37;101883.47;;;9.07;100.00
66381;BME280;53177;52.648;1.214;2023-05-12T11:14:02;101894.91;;;9.08;100.00
66381;BME280;53177;52.648;1.214;2023-05-12T11:16:28;101887.84;;;9.10;100.00
66381;BME280;53177;52.648;1.214;2023-05-12T11:19:02;101894.03;;;9.09;100.00
66381;BME280;53177;52.648;1.214;2023-05-12T11:21:29;101894.03;;;9.09;100.00
66381;BME280;53177;52.648;1.214;2023-05-12T11:23:54;101897.53;;;9.11;100.00
66381;BME280;53177;52.648;1.214;2023-05-12T11:26:20;101888.75;;;9.12;100.00
66381;BME280;53177;52.648;1.214;2023-05-12T11:28:46;101889.63;;;9.14;100.00
66381;BME280;53177;52.648;1.214;2023-05-12T11:31:17;101905.47;;;9.11;100.00
66381;BME280;53177;52.648;1.214;2023-05-12T11:33:44;101893.16;;;9.14;100.00
66381;BME280;53177;52.648;1.214;2023-05-12T11:36:09;101900.22;;;9.20;100.00
66381;BME280;53177;52.648;1.214;2023-05-12T11:38:35;101899.31;;;9.21;100.00
66381;BME280;53177;52.648;1.214;2023-05-12T11:41:00;101898.47;;;9.23;100.00
66381;BME280;53177;52.648;1.214;2023-05-12T11:43:27;101892.31;;;9.23;100.00
66381;BME280;53177;52.648;1.214;2023-05-12T11:45:53;101902.00;;;9.27;100.00
66381;BME280;53177;52.648;1.214;2023-05-12T11:48:19;101897.56;;;9.27;100.00
66381;BME280;53177;52.648;1.214;2023-05-12T11:50:47;101900.19;;;9.27;100.00
66381;BME280;53177;52.648;1.214;2023-05-12T11:53:15;101905.50;;;9.26;100.00
66381;BME280;53177;52.648;1.214;2023-05-12T11:55:54;101903.72;;;9.28;100.00
66381;BME280;53177;52.648;1.214;2023-05-12T11:58:23;101903.75;;;9.33;100.00
66381;BME280;53177;52.648;1.214;2023-05-12T12:00:51;101901.13;;;9.34;100.00
66381;BME280;53177;52.648;1.214;2023-05-12T12:03:16;101915.19;;;9.35;100.00
66381;BME280;53177;52.648;1.214;2023-05-12T12:05:44;101913.44;;;9.34;100.00
66381;BME280;53177;52.648;1.214;2023-05-12T12:08:12;101910.81;;;9.38;100.00
66381;BME280;53177;52.648;1.214;2023-05-12T12:10:39;101917.81;;;9.33;100.00
66381;BME280;53177;52.648;1.214;2023-05-12T12:13:07;101916.06;;;9.37;100.00
66381;BME280;53177;52.648;1.214;2023-05-12T12:15:32;101926.59;;;9.32;100.00
66381;BME280;53177;52.648;1.214;2023-05-12T12:17:58;101916.06;;;9.34;100.00
66381;BME280;53177;52.648;1.214;2023-05-12T12:20:27;101925.75;;;9.36;100.00
66381;BME280;53177;52.648;1.214;2023-05-12T12:22:53;101927.53;;;9.42;100.00
66381;BME280;53177;52.648;1.214;2023-05-12T12:25:19;101924.88;;;9.37;100.00
66381;BME280;53177;52.648;1.214;2023-05-12T12:27:45;101924.84;;;9.39;100.00
66381;BME280;53177;52.648;1.214;2023-05-12T12:30:13;101931.91;;;9.38;100.00
66381;BME280;53177;52.648;1.214;2023-05-12T12:32:39;101935.44;;;9.40;100.00
66381;BME280;53177;52.648;1.214;2023-05-12T12:35:05;101934.53;;;9.43;100.00
66381;BME280;53177;52.648;1.214;2023-05-12T12:37:31;101936.34;;;9.53;100.00
66381;BME280;53177;52.648;1.214;2023-05-12T12:39:57;101936.31;;;9.48;100.00
66381;BME280;53177;52.648;1.214;2023-05-12T12:42:23;101935.47;;;9.49;100.00
66381;BME280;53177;52.648;1.214;2023-05-12T12:44:49;101933.69;;;9.53;100.00
66381;BME280;53177;52.648;1.214;2023-05-12T12:47:16;101939.84;;;9.47;100.00
66381;BME280;53177;52.648;1.214;2023-05-12T12:49:41;101938.09;;;9.49;100.00